Main page
METAR-TAF:

METAR-TAF

Airports :

RAF Scampton

Scampton, England

latitude: 53-18-27N, longitude: 000-33-03W, elevation: 62 m

Current weather observation

The report was made 58 minutes ago, at 06:50 UTC
Wind 10 kt from the West/Northwest
Temperature 12°C
Humidity 82%
Pressure 1024 hPa
Visibility 10 km or more

METAR: EGXP 110650Z AUTO 29010KT 9999 // NCD 12/09 Q1024

Time: 08:48 (07:48 UTC)


TAF: missing

Weather observations and forecasts of more than 4000 airports (METAR and TAF reports).

The available stations are represented by yellow and red dots on the map.

Hover mouse over dot to see the name of the station.

Then click to see weather observations and forecasts.

To change the map : click on the green buttons with a black cross to zoom in, on the green button with a dash to zoom out, or on the green arrows for adjacent maps.


METAR-TAF: